Lake Pleasant, NY (12108)

2:49 PM EDT on August 01, 2015 (GMT -0400)
Village Motorsports - Speculator | | Change Station
CLOSE
Current Station
Personal Weather Station
Location: Speculator, NY
Elevation: 1768 ft
Nearby Weather Stations

Elev 1768 ft 43.50 °N, 74.37 °W | Updated 14 minutes ago

Partly Cloudy
Partly Cloudy
74.7 °F
Feels Like 78 °F
N
5.8
Wind Variable Wind from West

Today
High -- | Low -- °F
--% Chance of Precip.
Yesterday
High -- | Low -- °F
Precip. -- in
5:46 AM 8:20 PM
Full, 97% visible
Pressure 29.74 in
Visibility 10.0 miles
Clouds Few 6500 ft
Heat Index 78 °F
Dew Point 52 °F
Humidity 46%
Rainfall 0.00 in
Snow Depth Not available.
UV 10 out of 12
Pollen 7.10 out of 12
Air Quality Not available.
Flu Activity Not available.
METAR KGFL 011753Z AUTO 24015G20KT 10SM FEW065 27/13 A2974 RMK AO2 SLP071 T02720128 10272 20189 58006

More Conditions Fewer Conditions

Pressure 29.74 in
Visibility 10.0 miles
Clouds Few 6500 ft
Heat Index 78 °F
Dew Point 52 °F
Humidity 46%
Rainfall 0.00 in
Snow Depth Not available.
UV 10 out of 12
Pollen 7.10 out of 12
Air Quality Not available.
Flu Activity Not available.
METAR KGFL 011753Z AUTO 24015G20KT 10SM FEW065 27/13 A2974 RMK AO2 SLP071 T02720128 10272 20189 58006

More Conditions Fewer Conditions

10-Day Weather Forecast

×

Almanac

Astronomy

Aug. 01, 2015 Rise Set
Actual Time
Civil Twilight
Nautical Twilight
Astronomical Twilight
Moon
Length of Visible Light
Length of Day
Tomorrow will be .
, % of the Moon is Illuminated

Today's Extremes

State Highs State Lows

Community

WunderPhotos

Upload Photos

1,843,028 photos uploaded!

WunderBlogs® & News

Nearby

Air Quality

  Air Quality AQ Index Pollutant
Not available.

Snow Depth

Station Depth Elevation

Earthquake Activity

City Distance Mag. Time & Date
Minimum magnitude displayed is 2.5.

Coastal Water Temperatures

Place Temperature

Stations

Nearby Weather Stations

Station Location Temp. Windchill Dew Point Humidity Wind Precip. Elev Updated Type